Iles-de-la-Madeleine, Canada
Current Conditions -  °F | °C
As of 4:30 PM on Wednesday 28 Jan 2015 (Local Time) from CYGR Reporting Station
Haze Haze  
Wind Chill: 17°   Ceiling: 300
Heat Index: 28°   Visibility: 3mi
Dew Point: 28°   Wind: 15mph
Humidity: 100%   Direction: 360°N
Pressure: 29.65"   Gusts: NA
Location:  47.42°N, 61.77°W
Report Text: CYGR 282030Z 36013KT 3SM BR OVC003 M02/M02 A2965 RMK FG2SF6 VIS W 5 SLP041
Loading
Personal Weather Stations






























Interactive Weather Map New forecast layout! Learn more

10-Day Weather Forecast

Advertisements
Track Severe Weather on mobile